sensor_id;sensor_type;location;lat;lon;timestamp;P1;durP1;ratioP1;P2;durP2;ratioP2
59976;SDS011;45837;51.076;3.578;2024-02-16T00:01:34;4.22;;;1.75;;
59976;SDS011;45837;51.076;3.578;2024-02-16T00:04:01;2.88;;;1.52;;
59976;SDS011;45837;51.076;3.578;2024-02-16T00:06:27;5.65;;;2.05;;
59976;SDS011;45837;51.076;3.578;2024-02-16T00:08:53;2.83;;;1.45;;
59976;SDS011;45837;51.076;3.578;2024-02-16T00:11:18;3.33;;;1.80;;
59976;SDS011;45837;51.076;3.578;2024-02-16T00:13:45;4.32;;;1.80;;
59976;SDS011;45837;51.076;3.578;2024-02-16T00:16:11;3.63;;;1.83;;
59976;SDS011;45837;51.076;3.578;2024-02-16T00:18:37;3.00;;;1.52;;
59976;SDS011;45837;51.076;3.578;2024-02-16T00:21:02;3.78;;;1.63;;
59976;SDS011;45837;51.076;3.578;2024-02-16T00:23:29;3.38;;;1.50;;
59976;SDS011;45837;51.076;3.578;2024-02-16T00:25:54;6.15;;;1.80;;
59976;SDS011;45837;51.076;3.578;2024-02-16T00:28:20;3.75;;;1.67;;
59976;SDS011;45837;51.076;3.578;2024-02-16T00:30:46;4.80;;;1.52;;
59976;SDS011;45837;51.076;3.578;2024-02-16T00:33:12;2.38;;;1.55;;
59976;SDS011;45837;51.076;3.578;2024-02-16T00:35:38;4.15;;;1.67;;
59976;SDS011;45837;51.076;3.578;2024-02-16T00:38:03;3.67;;;1.77;;
59976;SDS011;45837;51.076;3.578;2024-02-16T00:40:29;4.32;;;1.80;;
59976;SDS011;45837;51.076;3.578;2024-02-16T00:42:55;3.75;;;1.60;;
59976;SDS011;45837;51.076;3.578;2024-02-16T00:45:21;3.58;;;1.75;;
59976;SDS011;45837;51.076;3.578;2024-02-16T00:47:47;4.32;;;1.95;;
59976;SDS011;45837;51.076;3.578;2024-02-16T00:50:14;3.80;;;1.85;;
59976;SDS011;45837;51.076;3.578;2024-02-16T00:52:40;3.63;;;1.85;;
59976;SDS011;45837;51.076;3.578;2024-02-16T00:55:06;3.90;;;1.90;;
59976;SDS011;45837;51.076;3.578;2024-02-16T00:57:32;5.38;;;1.85;;
59976;SDS011;45837;51.076;3.578;2024-02-16T00:59:59;4.47;;;1.50;;
59976;SDS011;45837;51.076;3.578;2024-02-16T01:02:25;3.30;;;1.80;;
59976;SDS011;45837;51.076;3.578;2024-02-16T01:04:51;5.63;;;1.73;;
59976;SDS011;45837;51.076;3.578;2024-02-16T01:07:18;3.47;;;1.65;;
59976;SDS011;45837;51.076;3.578;2024-02-16T01:09:43;3.75;;;1.67;;
59976;SDS011;45837;51.076;3.578;2024-02-16T01:12:09;3.55;;;1.75;;
59976;SDS011;45837;51.076;3.578;2024-02-16T01:14:35;4.03;;;1.95;;
59976;SDS011;45837;51.076;3.578;2024-02-16T01:17:02;3.50;;;1.90;;
59976;SDS011;45837;51.076;3.578;2024-02-16T01:19:28;5.03;;;1.85;;
59976;SDS011;45837;51.076;3.578;2024-02-16T01:21:54;3.85;;;1.83;;
59976;SDS011;45837;51.076;3.578;2024-02-16T01:24:23;3.15;;;1.67;;
59976;SDS011;45837;51.076;3.578;2024-02-16T01:26:49;3.92;;;1.60;;
59976;SDS011;45837;51.076;3.578;2024-02-16T01:29:15;3.50;;;1.60;;
59976;SDS011;45837;51.076;3.578;2024-02-16T01:31:40;5.13;;;1.95;;
59976;SDS011;45837;51.076;3.578;2024-02-16T01:34:06;3.58;;;1.70;;
59976;SDS011;45837;51.076;3.578;2024-02-16T01:36:32;2.95;;;1.85;;
59976;SDS011;45837;51.076;3.578;2024-02-16T01:38:58;5.18;;;1.83;;
59976;SDS011;45837;51.076;3.578;2024-02-16T01:41:24;2.88;;;1.48;;
59976;SDS011;45837;51.076;3.578;2024-02-16T01:43:52;3.55;;;1.58;;
59976;SDS011;45837;51.076;3.578;2024-02-16T01:46:20;3.38;;;1.65;;
59976;SDS011;45837;51.076;3.578;2024-02-16T01:48:46;4.75;;;2.10;;
59976;SDS011;45837;51.076;3.578;2024-02-16T01:51:12;3.80;;;1.95;;
59976;SDS011;45837;51.076;3.578;2024-02-16T01:53:39;3.22;;;1.88;;
59976;SDS011;45837;51.076;3.578;2024-02-16T01:56:06;4.82;;;1.88;;
59976;SDS011;45837;51.076;3.578;2024-02-16T01:58:33;3.25;;;1.92;;
59976;SDS011;45837;51.076;3.578;2024-02-16T02:00:59;4.38;;;2.00;;
59976;SDS011;45837;51.076;3.578;2024-02-16T02:03:24;3.63;;;1.70;;
59976;SDS011;45837;51.076;3.578;2024-02-16T02:05:51;2.83;;;1.50;;
59976;SDS011;45837;51.076;3.578;2024-02-16T02:08:19;3.15;;;1.77;;
59976;SDS011;45837;51.076;3.578;2024-02-16T02:10:45;2.88;;;1.73;;
59976;SDS011;45837;51.076;3.578;2024-02-16T02:13:11;2.88;;;1.80;;
59976;SDS011;45837;51.076;3.578;2024-02-16T02:15:37;3.45;;;1.52;;
59976;SDS011;45837;51.076;3.578;2024-02-16T02:18:02;3.60;;;1.73;;
59976;SDS011;45837;51.076;3.578;2024-02-16T02:20:29;2.83;;;1.52;;
59976;SDS011;45837;51.076;3.578;2024-02-16T02:22:55;3.95;;;1.67;;
59976;SDS011;45837;51.076;3.578;2024-02-16T02:25:21;3.45;;;1.70;;
59976;SDS011;45837;51.076;3.578;2024-02-16T02:27:46;2.72;;;1.73;;
59976;SDS011;45837;51.076;3.578;2024-02-16T02:30:12;2.58;;;1.52;;
59976;SDS011;45837;51.076;3.578;2024-02-16T02:32:38;3.38;;;1.70;;
59976;SDS011;45837;51.076;3.578;2024-02-16T02:35:05;3.55;;;1.75;;
59976;SDS011;45837;51.076;3.578;2024-02-16T02:37:31;3.30;;;1.77;;
59976;SDS011;45837;51.076;3.578;2024-02-16T02:39:57;3.42;;;1.90;;
59976;SDS011;45837;51.076;3.578;2024-02-16T02:42:23;3.22;;;1.73;;
59976;SDS011;45837;51.076;3.578;2024-02-16T02:44:48;2.67;;;1.40;;
59976;SDS011;45837;51.076;3.578;2024-02-16T02:47:18;3.88;;;1.67;;
59976;SDS011;45837;51.076;3.578;2024-02-16T02:49:44;3.30;;;1.70;;
59976;SDS011;45837;51.076;3.578;2024-02-16T02:52:10;3.28;;;1.70;;
59976;SDS011;45837;51.076;3.578;2024-02-16T02:54:36;2.13;;;1.40;;
59976;SDS011;45837;51.076;3.578;2024-02-16T02:57:02;3.30;;;1.90;;
59976;SDS011;45837;51.076;3.578;2024-02-16T02:59:28;4.40;;;1.63;;
59976;SDS011;45837;51.076;3.578;2024-02-16T03:01:54;3.40;;;1.60;;
59976;SDS011;45837;51.076;3.578;2024-02-16T03:04:20;2.92;;;1.58;;
59976;SDS011;45837;51.076;3.578;2024-02-16T03:06:46;2.70;;;1.60;;
59976;SDS011;45837;51.076;3.578;2024-02-16T03:09:12;2.17;;;1.48;;
59976;SDS011;45837;51.076;3.578;2024-02-16T03:11:38;3.63;;;1.52;;
59976;SDS011;45837;51.076;3.578;2024-02-16T03:14:05;3.78;;;1.90;;
59976;SDS011;45837;51.076;3.578;2024-02-16T03:16:31;3.88;;;2.30;;
59976;SDS011;45837;51.076;3.578;2024-02-16T03:18:57;3.08;;;1.60;;
59976;SDS011;45837;51.076;3.578;2024-02-16T03:21:23;2.88;;;1.65;;
59976;SDS011;45837;51.076;3.578;2024-02-16T03:23:49;2.55;;;1.65;;
59976;SDS011;45837;51.076;3.578;2024-02-16T03:26:16;2.70;;;1.45;;
59976;SDS011;45837;51.076;3.578;2024-02-16T03:28:46;2.70;;;1.60;;
59976;SDS011;45837;51.076;3.578;2024-02-16T03:31:19;2.33;;;1.40;;
59976;SDS011;45837;51.076;3.578;2024-02-16T03:33:46;3.57;;;1.90;;
59976;SDS011;45837;51.076;3.578;2024-02-16T03:36:12;2.17;;;1.40;;
59976;SDS011;45837;51.076;3.578;2024-02-16T03:38:46;2.95;;;1.80;;
59976;SDS011;45837;51.076;3.578;2024-02-16T03:41:17;3.70;;;1.75;;
59976;SDS011;45837;51.076;3.578;2024-02-16T03:43:44;2.95;;;1.63;;
59976;SDS011;45837;51.076;3.578;2024-02-16T03:46:10;3.42;;;1.50;;
59976;SDS011;45837;51.076;3.578;2024-02-16T03:48:36;2.33;;;1.30;;
59976;SDS011;45837;51.076;3.578;2024-02-16T03:51:02;3.40;;;1.92;;
59976;SDS011;45837;51.076;3.578;2024-02-16T03:53:28;3.08;;;1.70;;
59976;SDS011;45837;51.076;3.578;2024-02-16T03:55:54;2.67;;;1.50;;
59976;SDS011;45837;51.076;3.578;2024-02-16T03:58:21;2.90;;;1.65;;
59976;SDS011;45837;51.076;3.578;2024-02-16T04:00:47;2.55;;;1.65;;
59976;SDS011;45837;51.076;3.578;2024-02-16T04:03:18;2.97;;;1.58;;
59976;SDS011;45837;51.076;3.578;2024-02-16T04:05:43;3.70;;;1.75;;
59976;SDS011;45837;51.076;3.578;2024-02-16T04:08:09;2.78;;;1.65;;
59976;SDS011;45837;51.076;3.578;2024-02-16T04:10:35;2.67;;;1.70;;
59976;SDS011;45837;51.076;3.578;2024-02-16T04:13:02;2.92;;;1.95;;
59976;SDS011;45837;51.076;3.578;2024-02-16T04:15:28;2.25;;;1.45;;
59976;SDS011;45837;51.076;3.578;2024-02-16T04:17:54;3.08;;;1.45;;
59976;SDS011;45837;51.076;3.578;2024-02-16T04:20:20;2.40;;;1.50;;
59976;SDS011;45837;51.076;3.578;2024-02-16T04:22:46;3.05;;;1.80;;
59976;SDS011;45837;51.076;3.578;2024-02-16T04:25:12;3.72;;;1.90;;
59976;SDS011;45837;51.076;3.578;2024-02-16T04:27:38;2.30;;;1.52;;
59976;SDS011;45837;51.076;3.578;2024-02-16T04:30:04;3.05;;;1.42;;
59976;SDS011;45837;51.076;3.578;2024-02-16T04:32:31;3.10;;;1.60;;
59976;SDS011;45837;51.076;3.578;2024-02-16T04:34:58;3.72;;;1.73;;
59976;SDS011;45837;51.076;3.578;2024-02-16T04:37:27;2.60;;;1.50;;
59976;SDS011;45837;51.076;3.578;2024-02-16T04:39:53;2.72;;;1.70;;
59976;SDS011;45837;51.076;3.578;2024-02-16T04:42:18;2.53;;;1.60;;
59976;SDS011;45837;51.076;3.578;2024-02-16T04:44:44;2.83;;;1.52;;
59976;SDS011;45837;51.076;3.578;2024-02-16T04:47:10;3.65;;;1.65;;
59976;SDS011;45837;51.076;3.578;2024-02-16T04:49:36;2.60;;;1.50;;
59976;SDS011;45837;51.076;3.578;2024-02-16T04:52:03;2.80;;;1.60;;
59976;SDS011;45837;51.076;3.578;2024-02-16T04:54:29;4.57;;;1.70;;
59976;SDS011;45837;51.076;3.578;2024-02-16T04:56:55;3.47;;;1.65;;
59976;SDS011;45837;51.076;3.578;2024-02-16T04:59:20;2.90;;;1.50;;
59976;SDS011;45837;51.076;3.578;2024-02-16T05:01:46;2.70;;;1.55;;
59976;SDS011;45837;51.076;3.578;2024-02-16T05:04:13;3.08;;;1.88;;
59976;SDS011;45837;51.076;3.578;2024-02-16T05:06:45;2.58;;;1.48;;
59976;SDS011;45837;51.076;3.578;2024-02-16T05:09:11;2.72;;;1.70;;
59976;SDS011;45837;51.076;3.578;2024-02-16T05:11:37;3.63;;;1.80;;
59976;SDS011;45837;51.076;3.578;2024-02-16T05:14:03;3.10;;;1.98;;
59976;SDS011;45837;51.076;3.578;2024-02-16T05:16:29;2.80;;;1.80;;
59976;SDS011;45837;51.076;3.578;2024-02-16T05:18:56;2.90;;;1.45;;
59976;SDS011;45837;51.076;3.578;2024-02-16T05:21:22;2.17;;;1.30;;
59976;SDS011;45837;51.076;3.578;2024-02-16T05:23:48;2.50;;;1.55;;
59976;SDS011;45837;51.076;3.578;2024-02-16T05:26:14;4.78;;;2.08;;
59976;SDS011;45837;51.076;3.578;2024-02-16T05:28:40;5.38;;;1.92;;
59976;SDS011;45837;51.076;3.578;2024-02-16T05:31:15;7.38;;;1.60;;
59976;SDS011;45837;51.076;3.578;2024-02-16T05:33:44;10.07;;;1.80;;
59976;SDS011;45837;51.076;3.578;2024-02-16T05:36:11;5.40;;;2.17;;
59976;SDS011;45837;51.076;3.578;2024-02-16T05:38:37;5.70;;;1.65;;
59976;SDS011;45837;51.076;3.578;2024-02-16T05:41:07;2.72;;;1.50;;
59976;SDS011;45837;51.076;3.578;2024-02-16T05:43:33;10.13;;;2.15;;
59976;SDS011;45837;51.076;3.578;2024-02-16T05:45:59;7.38;;;1.80;;
59976;SDS011;45837;51.076;3.578;2024-02-16T05:48:25;9.48;;;1.70;;
59976;SDS011;45837;51.076;3.578;2024-02-16T05:51:02;3.85;;;1.83;;
59976;SDS011;45837;51.076;3.578;2024-02-16T05:53:28;3.03;;;1.80;;
59976;SDS011;45837;51.076;3.578;2024-02-16T05:55:53;6.25;;;1.95;;
59976;SDS011;45837;51.076;3.578;2024-02-16T05:58:20;4.70;;;1.90;;
59976;SDS011;45837;51.076;3.578;2024-02-16T06:00:46;5.75;;;1.60;;
59976;SDS011;45837;51.076;3.578;2024-02-16T06:03:13;5.47;;;1.70;;
59976;SDS011;45837;51.076;3.578;2024-02-16T06:05:39;7.10;;;1.70;;
59976;SDS011;45837;51.076;3.578;2024-02-16T06:08:06;3.83;;;1.60;;
59976;SDS011;45837;51.076;3.578;2024-02-16T06:10:33;3.60;;;1.40;;
59976;SDS011;45837;51.076;3.578;2024-02-16T06:12:59;4.63;;;1.52;;
59976;SDS011;45837;51.076;3.578;2024-02-16T06:15:24;4.65;;;2.10;;
59976;SDS011;45837;51.076;3.578;2024-02-16T06:17:51;3.55;;;1.60;;
59976;SDS011;45837;51.076;3.578;2024-02-16T06:20:17;11.05;;;2.28;;
59976;SDS011;45837;51.076;3.578;2024-02-16T06:22:43;5.97;;;2.00;;
59976;SDS011;45837;51.076;3.578;2024-02-16T06:25:09;3.83;;;1.95;;
59976;SDS011;45837;51.076;3.578;2024-02-16T06:27:35;3.97;;;1.70;;
59976;SDS011;45837;51.076;3.578;2024-02-16T06:30:02;3.58;;;1.92;;
59976;SDS011;45837;51.076;3.578;2024-02-16T06:32:33;4.63;;;1.70;;
59976;SDS011;45837;51.076;3.578;2024-02-16T06:34:59;4.80;;;1.70;;
59976;SDS011;45837;51.076;3.578;2024-02-16T06:37:24;3.75;;;1.60;;
59976;SDS011;45837;51.076;3.578;2024-02-16T06:39:50;3.05;;;1.60;;
59976;SDS011;45837;51.076;3.578;2024-02-16T06:42:16;2.60;;;1.52;;
59976;SDS011;45837;51.076;3.578;2024-02-16T06:44:42;4.22;;;1.50;;
59976;SDS011;45837;51.076;3.578;2024-02-16T06:47:08;2.80;;;1.80;;
59976;SDS011;45837;51.076;3.578;2024-02-16T06:49:34;4.07;;;2.28;;
59976;SDS011;45837;51.076;3.578;2024-02-16T06:51:59;2.90;;;1.60;;
59976;SDS011;45837;51.076;3.578;2024-02-16T06:54:25;3.78;;;1.88;;
59976;SDS011;45837;51.076;3.578;2024-02-16T06:56:51;3.75;;;1.98;;
59976;SDS011;45837;51.076;3.578;2024-02-16T06:59:17;3.92;;;1.65;;
59976;SDS011;45837;51.076;3.578;2024-02-16T07:01:43;3.85;;;1.70;;
59976;SDS011;45837;51.076;3.578;2024-02-16T07:04:09;2.80;;;1.65;;
59976;SDS011;45837;51.076;3.578;2024-02-16T07:06:35;4.22;;;2.05;;
59976;SDS011;45837;51.076;3.578;2024-02-16T07:09:01;3.88;;;1.70;;
59976;SDS011;45837;51.076;3.578;2024-02-16T07:11:29;2.28;;;1.45;;
59976;SDS011;45837;51.076;3.578;2024-02-16T07:13:55;3.97;;;1.70;;
59976;SDS011;45837;51.076;3.578;2024-02-16T07:16:21;4.75;;;2.03;;
59976;SDS011;45837;51.076;3.578;2024-02-16T07:18:47;4.03;;;1.73;;
59976;SDS011;45837;51.076;3.578;2024-02-16T07:21:13;2.95;;;1.73;;
59976;SDS011;45837;51.076;3.578;2024-02-16T07:23:39;2.55;;;1.70;;
59976;SDS011;45837;51.076;3.578;2024-02-16T07:26:04;10.70;;;1.80;;
59976;SDS011;45837;51.076;3.578;2024-02-16T07:28:30;2.50;;;1.45;;
59976;SDS011;45837;51.076;3.578;2024-02-16T07:30:57;3.25;;;1.60;;
59976;SDS011;45837;51.076;3.578;2024-02-16T07:33:22;2.88;;;1.85;;
59976;SDS011;45837;51.076;3.578;2024-02-16T07:35:50;3.00;;;1.58;;
59976;SDS011;45837;51.076;3.578;2024-02-16T07:38:17;4.05;;;1.52;;
59976;SDS011;45837;51.076;3.578;2024-02-16T07:40:43;3.15;;;1.83;;
59976;SDS011;45837;51.076;3.578;2024-02-16T07:43:11;3.92;;;1.80;;
59976;SDS011;45837;51.076;3.578;2024-02-16T07:45:36;2.83;;;1.70;;
59976;SDS011;45837;51.076;3.578;2024-02-16T07:48:02;3.72;;;1.83;;
59976;SDS011;45837;51.076;3.578;2024-02-16T07:50:30;4.35;;;1.77;;
59976;SDS011;45837;51.076;3.578;2024-02-16T07:52:56;2.25;;;1.50;;
59976;SDS011;45837;51.076;3.578;2024-02-16T07:55:22;3.42;;;1.60;;
59976;SDS011;45837;51.076;3.578;2024-02-16T07:57:50;3.17;;;1.60;;
59976;SDS011;45837;51.076;3.578;2024-02-16T08:00:17;3.28;;;1.75;;
59976;SDS011;45837;51.076;3.578;2024-02-16T08:02:44;3.28;;;1.92;;
59976;SDS011;45837;51.076;3.578;2024-02-16T08:05:13;6.82;;;2.15;;
59976;SDS011;45837;51.076;3.578;2024-02-16T08:07:39;7.05;;;2.00;;
59976;SDS011;45837;51.076;3.578;2024-02-16T08:10:07;10.35;;;2.42;;
59976;SDS011;45837;51.076;3.578;2024-02-16T08:12:34;4.45;;;2.17;;
59976;SDS011;45837;51.076;3.578;2024-02-16T08:15:04;6.65;;;1.88;;
59976;SDS011;45837;51.076;3.578;2024-02-16T08:17:35;6.03;;;2.38;;
59976;SDS011;45837;51.076;3.578;2024-02-16T08:20:01;4.15;;;1.98;;
59976;SDS011;45837;51.076;3.578;2024-02-16T08:22:27;4.70;;;2.38;;
59976;SDS011;45837;51.076;3.578;2024-02-16T08:24:53;6.88;;;2.50;;
59976;SDS011;45837;51.076;3.578;2024-02-16T08:27:19;8.07;;;1.73;;
59976;SDS011;45837;51.076;3.578;2024-02-16T08:29:45;11.45;;;1.90;;
59976;SDS011;45837;51.076;3.578;2024-02-16T08:32:11;5.07;;;1.90;;
59976;SDS011;45837;51.076;3.578;2024-02-16T08:34:37;13.18;;;3.38;;
59976;SDS011;45837;51.076;3.578;2024-02-16T08:37:04;12.48;;;2.05;;
59976;SDS011;45837;51.076;3.578;2024-02-16T08:39:30;6.97;;;1.65;;
59976;SDS011;45837;51.076;3.578;2024-02-16T08:41:57;7.25;;;1.75;;
59976;SDS011;45837;51.076;3.578;2024-02-16T08:44:23;8.50;;;2.38;;
59976;SDS011;45837;51.076;3.578;2024-02-16T08:46:50;14.15;;;2.22;;
59976;SDS011;45837;51.076;3.578;2024-02-16T08:49:16;16.48;;;2.17;;
59976;SDS011;45837;51.076;3.578;2024-02-16T08:51:42;16.20;;;2.67;;
59976;SDS011;45837;51.076;3.578;2024-02-16T08:54:08;6.97;;;2.00;;
59976;SDS011;45837;51.076;3.578;2024-02-16T08:56:35;9.88;;;2.13;;
59976;SDS011;45837;51.076;3.578;2024-02-16T08:59:03;16.98;;;2.30;;
59976;SDS011;45837;51.076;3.578;2024-02-16T09:01:30;15.20;;;2.80;;
59976;SDS011;45837;51.076;3.578;2024-02-16T09:03:56;15.60;;;2.20;;
59976;SDS011;45837;51.076;3.578;2024-02-16T09:06:21;10.10;;;1.95;;
59976;SDS011;45837;51.076;3.578;2024-02-16T09:08:47;15.65;;;2.58;;
59976;SDS011;45837;51.076;3.578;2024-02-16T09:11:13;14.23;;;2.47;;
59976;SDS011;45837;51.076;3.578;2024-02-16T09:13:39;10.02;;;2.25;;
59976;SDS011;45837;51.076;3.578;2024-02-16T09:16:05;10.48;;;2.22;;
59976;SDS011;45837;51.076;3.578;2024-02-16T09:18:32;8.35;;;2.00;;
59976;SDS011;45837;51.076;3.578;2024-02-16T09:20:58;14.50;;;2.47;;
59976;SDS011;45837;51.076;3.578;2024-02-16T09:23:25;12.85;;;2.25;;
59976;SDS011;45837;51.076;3.578;2024-02-16T09:25:51;9.80;;;1.80;;
59976;SDS011;45837;51.076;3.578;2024-02-16T09:28:17;7.78;;;2.00;;
59976;SDS011;45837;51.076;3.578;2024-02-16T09:30:46;11.05;;;2.60;;
59976;SDS011;45837;51.076;3.578;2024-02-16T09:33:12;8.93;;;2.03;;
59976;SDS011;45837;51.076;3.578;2024-02-16T09:35:39;9.05;;;2.35;;
59976;SDS011;45837;51.076;3.578;2024-02-16T09:38:05;7.78;;;1.80;;
59976;SDS011;45837;51.076;3.578;2024-02-16T09:40:31;9.50;;;1.88;;
59976;SDS011;45837;51.076;3.578;2024-02-16T09:42:57;16.40;;;2.33;;
59976;SDS011;45837;51.076;3.578;2024-02-16T09:45:23;11.90;;;2.08;;
59976;SDS011;45837;51.076;3.578;2024-02-16T09:47:51;10.90;;;2.33;;
59976;SDS011;45837;51.076;3.578;2024-02-16T09:50:19;9.30;;;2.10;;
59976;SDS011;45837;51.076;3.578;2024-02-16T09:52:46;13.23;;;2.50;;
59976;SDS011;45837;51.076;3.578;2024-02-16T09:55:14;10.20;;;1.90;;
59976;SDS011;45837;51.076;3.578;2024-02-16T09:57:41;5.05;;;2.08;;
59976;SDS011;45837;51.076;3.578;2024-02-16T10:00:08;13.20;;;2.72;;
59976;SDS011;45837;51.076;3.578;2024-02-16T10:02:45;12.55;;;2.40;;
59976;SDS011;45837;51.076;3.578;2024-02-16T10:05:17;17.02;;;2.45;;
59976;SDS011;45837;51.076;3.578;2024-02-16T10:07:45;21.20;;;3.00;;
59976;SDS011;45837;51.076;3.578;2024-02-16T10:12:47;19.75;;;3.17;;
59976;SDS011;45837;51.076;3.578;2024-02-16T10:15:20;20.25;;;4.18;;
59976;SDS011;45837;51.076;3.578;2024-02-16T10:18:03;23.13;;;3.05;;
59976;SDS011;45837;51.076;3.578;2024-02-16T10:20:31;22.15;;;3.03;;
59976;SDS011;45837;51.076;3.578;2024-02-16T10:25:34;13.45;;;2.97;;
59976;SDS011;45837;51.076;3.578;2024-02-16T10:28:10;19.15;;;2.85;;
59976;SDS011;45837;51.076;3.578;2024-02-16T10:30:39;21.65;;;3.03;;
59976;SDS011;45837;51.076;3.578;2024-02-16T10:33:10;15.32;;;3.03;;
59976;SDS011;45837;51.076;3.578;2024-02-16T10:35:37;12.98;;;2.85;;
59976;SDS011;45837;51.076;3.578;2024-02-16T10:38:06;16.00;;;3.20;;
59976;SDS011;45837;51.076;3.578;2024-02-16T10:40:41;23.35;;;3.13;;
59976;SDS011;45837;51.076;3.578;2024-02-16T10:43:08;13.25;;;2.85;;
59976;SDS011;45837;51.076;3.578;2024-02-16T10:45:35;19.63;;;3.25;;
59976;SDS011;45837;51.076;3.578;2024-02-16T10:48:03;16.65;;;2.70;;
59976;SDS011;45837;51.076;3.578;2024-02-16T10:50:33;14.35;;;3.15;;
59976;SDS011;45837;51.076;3.578;2024-02-16T10:53:04;16.25;;;3.30;;
59976;SDS011;45837;51.076;3.578;2024-02-16T10:55:44;14.45;;;2.53;;
59976;SDS011;45837;51.076;3.578;2024-02-16T10:58:11;13.57;;;3.13;;
59976;SDS011;45837;51.076;3.578;2024-02-16T11:03:22;11.20;;;3.58;;
59976;SDS011;45837;51.076;3.578;2024-02-16T11:05:53;10.93;;;3.92;;
59976;SDS011;45837;51.076;3.578;2024-02-16T11:08:20;7.40;;;3.38;;
59976;SDS011;45837;51.076;3.578;2024-02-16T11:11:01;8.63;;;3.55;;
59976;SDS011;45837;51.076;3.578;2024-02-16T11:13:33;8.55;;;3.83;;
59976;SDS011;45837;51.076;3.578;2024-02-16T11:16:06;17.90;;;4.00;;
59976;SDS011;45837;51.076;3.578;2024-02-16T11:18:36;10.68;;;4.18;;
59976;SDS011;45837;51.076;3.578;2024-02-16T11:21:06;16.60;;;3.90;;
59976;SDS011;45837;51.076;3.578;2024-02-16T11:23:36;13.23;;;4.22;;
59976;SDS011;45837;51.076;3.578;2024-02-16T11:26:03;12.75;;;3.83;;
59976;SDS011;45837;51.076;3.578;2024-02-16T11:28:31;11.82;;;3.90;;
59976;SDS011;45837;51.076;3.578;2024-02-16T11:30:59;11.27;;;3.22;;
59976;SDS011;45837;51.076;3.578;2024-02-16T11:33:28;11.50;;;3.50;;
59976;SDS011;45837;51.076;3.578;2024-02-16T11:35:58;12.20;;;3.72;;
59976;SDS011;45837;51.076;3.578;2024-02-16T11:38:26;15.02;;;4.25;;
59976;SDS011;45837;51.076;3.578;2024-02-16T11:40:54;13.27;;;4.97;;
59976;SDS011;45837;51.076;3.578;2024-02-16T11:43:23;15.23;;;4.43;;
59976;SDS011;45837;51.076;3.578;2024-02-16T11:45:50;18.67;;;4.38;;
59976;SDS011;45837;51.076;3.578;2024-02-16T11:48:20;10.32;;;4.00;;
59976;SDS011;45837;51.076;3.578;2024-02-16T11:50:48;12.63;;;3.90;;
59976;SDS011;45837;51.076;3.578;2024-02-16T11:53:24;10.27;;;3.53;;
59976;SDS011;45837;51.076;3.578;2024-02-16T11:55:50;14.77;;;4.15;;
59976;SDS011;45837;51.076;3.578;2024-02-16T11:58:19;15.00;;;3.38;;
59976;SDS011;45837;51.076;3.578;2024-02-16T12:00:45;26.63;;;3.95;;
59976;SDS011;45837;51.076;3.578;2024-02-16T12:03:22;14.80;;;3.00;;
59976;SDS011;45837;51.076;3.578;2024-02-16T12:05:57;10.77;;;4.07;;
59976;SDS011;45837;51.076;3.578;2024-02-16T12:08:24;14.90;;;3.75;;
59976;SDS011;45837;51.076;3.578;2024-02-16T12:10:58;17.20;;;3.17;;
59976;SDS011;45837;51.076;3.578;2024-02-16T12:13:24;13.32;;;3.20;;
59976;SDS011;45837;51.076;3.578;2024-02-16T12:15:50;11.05;;;3.03;;
59976;SDS011;45837;51.076;3.578;2024-02-16T12:20:59;8.98;;;2.90;;
59976;SDS011;45837;51.076;3.578;2024-02-16T12:23:26;12.85;;;3.03;;
59976;SDS011;45837;51.076;3.578;2024-02-16T12:25:52;11.60;;;3.35;;
59976;SDS011;45837;51.076;3.578;2024-02-16T12:28:18;21.60;;;3.22;;
59976;SDS011;45837;51.076;3.578;2024-02-16T12:30:48;17.90;;;2.80;;
59976;SDS011;45837;51.076;3.578;2024-02-16T12:33:14;13.05;;;3.28;;
59976;SDS011;45837;51.076;3.578;2024-02-16T12:35:40;13.98;;;2.50;;
59976;SDS011;45837;51.076;3.578;2024-02-16T12:38:06;13.20;;;2.85;;
59976;SDS011;45837;51.076;3.578;2024-02-16T12:40:32;12.95;;;2.70;;
59976;SDS011;45837;51.076;3.578;2024-02-16T12:42:58;11.52;;;2.45;;
59976;SDS011;45837;51.076;3.578;2024-02-16T12:45:24;10.80;;;2.00;;
59976;SDS011;45837;51.076;3.578;2024-02-16T12:47:49;12.68;;;2.90;;
59976;SDS011;45837;51.076;3.578;2024-02-16T12:50:16;10.02;;;2.33;;
59976;SDS011;45837;51.076;3.578;2024-02-16T12:52:45;12.23;;;2.65;;
59976;SDS011;45837;51.076;3.578;2024-02-16T12:55:11;8.95;;;2.05;;
59976;SDS011;45837;51.076;3.578;2024-02-16T12:57:37;12.82;;;2.30;;
59976;SDS011;45837;51.076;3.578;2024-02-16T13:00:03;12.35;;;2.20;;
59976;SDS011;45837;51.076;3.578;2024-02-16T13:02:30;6.82;;;2.22;;
59976;SDS011;45837;51.076;3.578;2024-02-16T13:04:56;6.43;;;2.28;;
59976;SDS011;45837;51.076;3.578;2024-02-16T13:07:23;5.88;;;2.53;;
59976;SDS011;45837;51.076;3.578;2024-02-16T13:09:50;5.82;;;2.22;;
59976;SDS011;45837;51.076;3.578;2024-02-16T13:12:17;11.13;;;2.30;;
59976;SDS011;45837;51.076;3.578;2024-02-16T13:14:45;7.60;;;2.28;;
59976;SDS011;45837;51.076;3.578;2024-02-16T13:17:11;5.60;;;2.33;;
59976;SDS011;45837;51.076;3.578;2024-02-16T13:19:37;9.25;;;2.15;;
59976;SDS011;45837;51.076;3.578;2024-02-16T13:22:03;6.38;;;2.38;;
59976;SDS011;45837;51.076;3.578;2024-02-16T13:24:29;5.50;;;1.98;;
59976;SDS011;45837;51.076;3.578;2024-02-16T13:26:55;5.53;;;2.05;;
59976;SDS011;45837;51.076;3.578;2024-02-16T13:29:21;5.72;;;1.88;;
59976;SDS011;45837;51.076;3.578;2024-02-16T13:31:47;6.15;;;2.20;;
59976;SDS011;45837;51.076;3.578;2024-02-16T13:34:13;6.88;;;2.00;;
59976;SDS011;45837;51.076;3.578;2024-02-16T13:36:42;3.85;;;1.70;;
59976;SDS011;45837;51.076;3.578;2024-02-16T13:39:11;5.00;;;2.20;;
59976;SDS011;45837;51.076;3.578;2024-02-16T13:41:39;6.18;;;2.00;;
59976;SDS011;45837;51.076;3.578;2024-02-16T13:44:05;6.50;;;2.00;;
59976;SDS011;45837;51.076;3.578;2024-02-16T13:46:31;5.40;;;1.70;;
59976;SDS011;45837;51.076;3.578;2024-02-16T13:48:57;8.15;;;1.95;;
59976;SDS011;45837;51.076;3.578;2024-02-16T13:51:24;7.25;;;2.42;;
59976;SDS011;45837;51.076;3.578;2024-02-16T13:53:50;6.78;;;2.95;;
59976;SDS011;45837;51.076;3.578;2024-02-16T13:56:16;8.38;;;2.60;;
59976;SDS011;45837;51.076;3.578;2024-02-16T13:58:42;9.60;;;3.40;;
59976;SDS011;45837;51.076;3.578;2024-02-16T14:01:08;6.50;;;2.95;;
59976;SDS011;45837;51.076;3.578;2024-02-16T14:03:35;7.63;;;2.30;;
59976;SDS011;45837;51.076;3.578;2024-02-16T14:06:01;5.93;;;2.58;;
59976;SDS011;45837;51.076;3.578;2024-02-16T14:08:28;6.80;;;2.80;;
59976;SDS011;45837;51.076;3.578;2024-02-16T14:10:53;6.32;;;2.97;;
59976;SDS011;45837;51.076;3.578;2024-02-16T14:13:19;6.20;;;2.60;;
59976;SDS011;45837;51.076;3.578;2024-02-16T14:15:46;5.10;;;2.30;;
59976;SDS011;45837;51.076;3.578;2024-02-16T14:18:12;5.43;;;2.50;;
59976;SDS011;45837;51.076;3.578;2024-02-16T14:20:38;5.03;;;2.75;;
59976;SDS011;45837;51.076;3.578;2024-02-16T14:23:03;6.30;;;2.53;;
59976;SDS011;45837;51.076;3.578;2024-02-16T14:25:32;6.53;;;2.78;;
59976;SDS011;45837;51.076;3.578;2024-02-16T14:27:58;4.93;;;2.70;;
59976;SDS011;45837;51.076;3.578;2024-02-16T14:30:24;6.80;;;2.80;;
59976;SDS011;45837;51.076;3.578;2024-02-16T14:32:50;6.45;;;2.97;;
59976;SDS011;45837;51.076;3.578;2024-02-16T14:35:16;5.70;;;2.90;;
59976;SDS011;45837;51.076;3.578;2024-02-16T14:37:42;6.03;;;2.40;;
59976;SDS011;45837;51.076;3.578;2024-02-16T14:40:07;5.38;;;2.10;;
59976;SDS011;45837;51.076;3.578;2024-02-16T14:42:35;7.20;;;2.60;;
59976;SDS011;45837;51.076;3.578;2024-02-16T14:45:03;6.45;;;2.60;;
59976;SDS011;45837;51.076;3.578;2024-02-16T14:47:31;4.68;;;2.35;;
59976;SDS011;45837;51.076;3.578;2024-02-16T14:49:57;5.85;;;2.58;;
59976;SDS011;45837;51.076;3.578;2024-02-16T14:52:23;7.32;;;2.45;;